Time;durP1;ratioP1;P1;durP2;ratioP2;P2;SDS_P1;SDS_P2;PMS_P1;PMS_P2;Temp;Humidity;BMP_temperature;BMP_pressure;BME280_temperature;BME280_humidity;BME280_pressure;Samples;Min_cycle;Max_cycle;Signal;HPM_P1;HPM_P2
2023/10/18 00:01:00;;;;;;;8.27;7.50;;;5.80;99.90;;;;;;5034112;28;20226;-68
2023/10/18 00:03:29;;;;;;;8.30;7.50;;;5.80;99.90;;;;;;5032561;28;20176;-68
2023/10/18 00:05:55;;;;;;;8.70;7.50;;;5.80;99.90;;;;;;5034070;28;20246;-68
2023/10/18 00:08:23;;;;;;;9.77;8.10;;;5.80;99.90;;;;;;5045210;28;20721;-68
2023/10/18 00:10:50;;;;;;;9.57;7.47;;;5.80;99.90;;;;;;5035841;28;20171;-67
2023/10/18 00:13:16;;;;;;;10.27;7.20;;;5.80;99.90;;;;;;5035948;28;20221;-67
2023/10/18 00:15:42;;;;;;;8.37;7.57;;;5.80;99.90;;;;;;5035828;28;20641;-68
2023/10/18 00:18:11;;;;;;;9.40;7.90;;;5.80;99.90;;;;;;5053737;28;20202;-68
2023/10/18 00:20:36;;;;;;;8.27;7.47;;;5.80;99.90;;;;;;5053710;28;20171;-68
2023/10/18 00:23:03;;;;;;;7.67;6.97;;;5.80;99.90;;;;;;5053406;28;20171;-68
2023/10/18 00:25:28;;;;;;;7.53;6.93;;;5.80;99.90;;;;;;5053333;28;20565;-68
2023/10/18 00:27:54;;;;;;;8.87;7.77;;;5.80;99.90;;;;;;5053406;28;20166;-68
2023/10/18 00:30:21;;;;;;;8.50;7.70;;;5.80;99.90;;;;;;5035633;28;20701;-68
2023/10/18 00:32:47;;;;;;;9.07;8.10;;;5.80;99.90;;;;;;5053416;28;20166;-68
2023/10/18 00:35:18;;;;;;;8.33;7.10;;;5.80;99.90;;;;;;5053431;28;20241;-68
2023/10/18 00:37:44;;;;;;;7.50;6.80;;;5.90;99.90;;;;;;5035315;28;20206;-69
2023/10/18 00:43:20;;;;;;;11.90;7.50;;;6.00;99.90;;;;;;5053157;28;20179;-68
2023/10/18 00:45:48;;;;;;;7.40;6.70;;;6.00;99.90;;;;;;5034925;28;20193;-68
2023/10/18 00:48:14;;;;;;;16.83;7.80;;;6.10;99.90;;;;;;5053203;28;20725;-69
2023/10/18 00:50:45;;;;;;;6.80;6.30;;;6.10;99.90;;;;;;5052979;28;20652;-68
2023/10/18 00:53:11;;;;;;;7.27;6.63;;;6.10;99.90;;;;;;5052769;28;20175;-69
2023/10/18 00:55:37;;;;;;;7.40;6.80;;;6.20;99.90;;;;;;5052862;28;20545;-67
2023/10/18 00:58:11;;;;;;;7.90;6.10;;;6.20;99.90;;;;;;5034981;28;20654;-68
2023/10/18 01:00:40;;;;;;;8.93;6.73;;;6.20;99.90;;;;;;5052724;28;20179;-68
2023/10/18 01:03:09;;;;;;;9.80;6.30;;;6.20;99.90;;;;;;5053185;28;20202;-68
2023/10/18 01:05:35;;;;;;;7.37;6.60;;;6.20;99.90;;;;;;5034665;28;20214;-68
2023/10/18 01:08:06;;;;;;;7.43;6.70;;;6.20;99.90;;;;;;5052806;28;20220;-68
2023/10/18 01:10:33;;;;;;;7.10;6.50;;;6.30;99.90;;;;;;5052466;28;20206;-68
2023/10/18 01:13:01;;;;;;;6.80;6.20;;;6.30;99.90;;;;;;5052875;28;20257;-68
2023/10/18 01:15:28;;;;;;;8.10;5.87;;;6.30;99.90;;;;;;5052528;28;20185;-69
2023/10/18 01:17:54;;;;;;;6.87;6.27;;;6.30;99.90;;;;;;5053154;28;20177;-68
2023/10/18 01:22:58;;;;;;;6.43;5.93;;;6.30;99.90;;;;;;5052834;28;20182;-68
2023/10/18 01:25:24;;;;;;;6.50;5.97;;;6.30;99.90;;;;;;5034336;28;20214;-68
2023/10/18 01:27:51;;;;;;;14.27;6.33;;;6.30;99.90;;;;;;5052392;28;20257;-68
2023/10/18 01:30:19;;;;;;;6.70;6.10;;;6.30;99.90;;;;;;5052437;28;20171;-68
2023/10/18 01:32:45;;;;;;;7.00;6.40;;;6.30;99.90;;;;;;5034167;28;20202;-69
2023/10/18 01:35:13;;;;;;;10.37;6.70;;;6.30;99.90;;;;;;5052026;28;20199;-68
2023/10/18 01:37:39;;;;;;;6.97;6.37;;;6.30;99.90;;;;;;5052092;28;20175;-68
2023/10/18 01:42:58;;;;;;;7.33;6.60;;;6.40;99.90;;;;;;5052150;28;20171;-69
2023/10/18 01:45:30;;;;;;;7.07;6.37;;;6.40;99.90;;;;;;5033953;28;20252;-68
2023/10/18 01:47:57;;;;;;;6.47;5.87;;;6.40;99.90;;;;;;5051611;28;20562;-69
2023/10/18 01:50:23;;;;;;;7.77;6.07;;;6.40;99.90;;;;;;5051826;28;20175;-68
2023/10/18 01:52:49;;;;;;;7.00;6.10;;;6.50;99.90;;;;;;5033834;28;20660;-68
2023/10/18 01:55:14;;;;;;;6.63;5.73;;;6.50;99.90;;;;;;5051839;28;20206;-68
2023/10/18 01:57:43;;;;;;;6.30;5.70;;;6.50;99.90;;;;;;5051606;28;20197;-68
2023/10/18 02:00:15;;;;;;;6.70;6.00;;;6.50;99.90;;;;;;5051569;28;20210;-69
2023/10/18 02:02:40;;;;;;;6.13;5.60;;;6.50;99.90;;;;;;5051590;28;20197;-68
2023/10/18 02:05:08;;;;;;;6.90;6.00;;;6.40;99.90;;;;;;5032804;28;20206;-68
2023/10/18 02:07:35;;;;;;;7.13;6.37;;;6.50;99.90;;;;;;5033681;28;20175;-68
2023/10/18 02:10:01;;;;;;;8.07;7.27;;;6.40;99.90;;;;;;5033748;28;20201;-67
2023/10/18 02:12:29;;;;;;;8.60;6.23;;;6.40;99.90;;;;;;5051863;28;20583;-67
2023/10/18 02:14:55;;;;;;;6.53;5.83;;;6.40;99.90;;;;;;5033662;28;20185;-68
2023/10/18 02:17:21;;;;;;;8.03;6.17;;;6.40;99.90;;;;;;5052128;28;20171;-68
2023/10/18 02:19:47;;;;;;;7.00;6.40;;;6.50;99.90;;;;;;5051447;28;20201;-69
2023/10/18 02:22:13;;;;;;;8.87;6.60;;;6.50;99.90;;;;;;5051939;28;20171;-67
2023/10/18 02:24:42;;;;;;;6.43;5.77;;;6.50;99.90;;;;;;5051301;28;20293;-70
2023/10/18 02:27:09;;;;;;;6.63;6.03;;;6.50;99.90;;;;;;5051585;28;20170;-70
2023/10/18 02:29:35;;;;;;;6.73;6.10;;;6.60;99.90;;;;;;5033758;28;20202;-68
2023/10/18 02:32:04;;;;;;;8.13;5.93;;;6.50;99.90;;;;;;5051809;28;20238;-68
2023/10/18 02:34:33;;;;;;;6.07;5.47;;;6.50;99.90;;;;;;5033731;28;20665;-70
2023/10/18 02:37:00;;;;;;;6.10;5.60;;;6.50;99.90;;;;;;5051890;28;20170;-68
2023/10/18 02:39:32;;;;;;;6.30;5.70;;;6.50;99.90;;;;;;5051242;28;20610;-68
2023/10/18 02:41:58;;;;;;;7.03;6.27;;;6.50;99.90;;;;;;5051912;28;20183;-70
2023/10/18 02:44:25;;;;;;;7.43;6.70;;;6.50;99.90;;;;;;5033319;28;20715;-69
2023/10/18 02:46:52;;;;;;;7.53;5.60;;;6.50;99.90;;;;;;5051325;28;20175;-68
2023/10/18 02:49:18;;;;;;;6.97;6.30;;;6.50;99.90;;;;;;5051418;28;20199;-67
2023/10/18 02:51:47;;;;;;;6.63;5.97;;;6.50;99.90;;;;;;5033223;28;20171;-68
2023/10/18 02:54:16;;;;;;;6.13;5.57;;;6.50;99.90;;;;;;5051186;28;20546;-68
2023/10/18 02:56:53;;;;;;;6.43;5.83;;;6.50;99.90;;;;;;5032877;28;20274;-68
2023/10/18 02:59:24;;;;;;;6.80;5.93;;;6.50;99.90;;;;;;5033465;28;20249;-69
2023/10/18 03:01:55;;;;;;;6.50;5.57;;;6.50;99.90;;;;;;5051348;28;20198;-67
2023/10/18 03:04:23;;;;;;;5.80;5.30;;;6.50;99.90;;;;;;5051342;28;20202;-67
2023/10/18 03:06:55;;;;;;;7.83;5.50;;;6.50;99.90;;;;;;5050953;28;20293;-68
2023/10/18 03:09:38;;;;;;;8.33;5.83;;;6.50;99.90;;;;;;5051164;28;20249;-68
2023/10/18 03:12:06;;;;;;;6.97;5.63;;;6.50;99.90;;;;;;5033695;28;20193;-68
2023/10/18 03:19:50;;;;;;;6.23;5.73;;;6.50;99.90;;;;;;5055394;28;20233;-68
2023/10/18 03:22:19;;;;;;;5.67;5.00;;;6.50;99.90;;;;;;5055756;28;20568;-68
2023/10/18 03:24:50;;;;;;;6.30;5.80;;;6.50;99.90;;;;;;5054924;28;20206;-68
2023/10/18 03:27:16;;;;;;;6.40;5.90;;;6.40;99.90;;;;;;5017768;28;20618;-68
2023/10/18 03:29:43;;;;;;;5.90;5.40;;;6.50;99.90;;;;;;5034914;28;20242;-67
2023/10/18 03:32:14;;;;;;;6.50;5.77;;;6.40;99.90;;;;;;5034802;28;20192;-67
2023/10/18 03:34:43;;;;;;;7.87;5.67;;;6.40;99.90;;;;;;5017068;28;20558;-68
2023/10/18 03:37:18;;;;;;;6.40;5.80;;;6.40;99.90;;;;;;5017349;28;20266;-67
2023/10/18 03:39:46;;;;;;;6.50;5.77;;;6.40;99.90;;;;;;5036374;28;20206;-68
2023/10/18 03:42:26;;;;;;;7.10;5.90;;;6.40;99.90;;;;;;5037168;28;20174;-67
2023/10/18 03:44:52;;;;;;;5.93;5.30;;;6.40;99.90;;;;;;5054469;28;20232;-69
2023/10/18 03:47:24;;;;;;;11.63;5.90;;;6.30;99.90;;;;;;5036737;28;20190;-67
2023/10/18 03:49:53;;;;;;;7.53;5.83;;;6.30;99.90;;;;;;5036754;28;20195;-69
2023/10/18 03:52:21;;;;;;;6.30;5.70;;;6.30;99.90;;;;;;5036947;28;20228;-68
2023/10/18 03:55:04;;;;;;;6.27;5.77;;;6.30;99.90;;;;;;5036459;28;20183;-68
2023/10/18 03:57:37;;;;;;;5.73;5.33;;;6.40;99.90;;;;;;5054583;28;20670;-68
2023/10/18 04:00:56;;;;;;;8.87;5.73;;;6.30;99.90;;;;;;5055259;22;20751;-84
2023/10/18 04:02:59;;;;;;;7.03;6.00;;;6.40;99.90;;;;;;5037400;28;20184;-84
2023/10/18 04:05:45;;;;;;;9.93;5.73;;;6.40;99.90;;;;;;5032022;28;20200;-84
2023/10/18 04:08:14;;;;;;;7.50;5.37;;;6.40;99.90;;;;;;5016232;28;20180;-84
2023/10/18 04:10:41;;;;;;;5.73;5.23;;;6.40;99.90;;;;;;5028727;28;20232;-84
2023/10/18 04:13:13;;;;;;;6.30;5.70;;;6.40;99.90;;;;;;5027316;28;20184;-84
2023/10/18 04:15:45;;;;;;;6.00;5.50;;;6.30;99.90;;;;;;5029962;28;20226;-84
2023/10/18 04:18:12;;;;;;;6.03;5.53;;;6.40;99.90;;;;;;5028628;28;20214;-84
2023/10/18 04:20:46;;;;;;;6.47;5.67;;;6.40;99.90;;;;;;5012038;28;20199;-84
2023/10/18 04:23:20;;;;;;;7.80;5.63;;;6.50;99.90;;;;;;5010685;28;20271;-84
2023/10/18 04:25:57;;;;;;;6.30;5.80;;;6.40;99.90;;;;;;5008950;28;20211;-84
2023/10/18 04:28:24;;;;;;;6.83;6.17;;;6.40;99.90;;;;;;5009226;28;20195;-84
2023/10/18 04:31:04;;;;;;;6.17;5.63;;;6.40;99.90;;;;;;5008818;28;20236;-84
2023/10/18 04:33:49;;;;;;;6.93;5.80;;;6.40;99.90;;;;;;5027731;28;20172;-84
2023/10/18 04:36:15;;;;;;;6.80;5.40;;;6.40;99.90;;;;;;5009705;28;20219;-84
2023/10/18 04:38:43;;;;;;;6.70;6.10;;;6.40;99.90;;;;;;5010719;28;20666;-84
2023/10/18 04:41:11;;;;;;;6.43;5.83;;;6.40;99.90;;;;;;5011153;28;20172;-84
2023/10/18 04:43:42;;;;;;;6.70;5.43;;;6.40;99.90;;;;;;5009639;28;20182;-84
2023/10/18 04:46:14;;;;;;;7.10;6.40;;;6.40;99.90;;;;;;5026777;28;20180;-84
2023/10/18 04:51:33;;;;;;;7.73;5.97;;;6.30;99.90;;;;;;5030143;28;20179;-84
2023/10/18 04:54:09;;;;;;;7.00;6.30;;;6.40;99.90;;;;;;5012578;28;20184;-85
2023/10/18 04:56:38;;;;;;;6.37;5.80;;;6.50;99.90;;;;;;5012066;28;20200;-87
2023/10/18 04:59:11;;;;;;;6.37;5.77;;;6.50;99.90;;;;;;5026004;28;20579;-85
2023/10/18 05:04:24;;;;;;;7.93;6.80;;;6.40;99.90;;;;;;5027461;28;20238;-85
2023/10/18 05:06:55;;;;;;;8.07;6.17;;;6.50;99.90;;;;;;5026013;28;20196;-85
2023/10/18 05:10:05;;;;;;;7.43;6.23;;;6.50;99.90;;;;;;5025498;28;20169;-85
2023/10/18 05:15:06;;;;;;;6.33;5.77;;;6.50;99.90;;;;;;5025869;28;20191;-84
2023/10/18 05:17:35;;;;;;;10.40;6.23;;;6.60;99.90;;;;;;5006719;28;20215;-84
2023/10/18 05:22:52;;;;;;;8.20;6.30;;;6.60;99.90;;;;;;5026632;28;20203;-86
2023/10/18 05:28:46;;;;;;;6.53;5.47;;;6.60;99.90;;;;;;5025540;28;20314;-85
2023/10/18 05:36:29;;;;;;;6.23;5.63;;;6.60;99.90;;;;;;5021372;28;20704;-86
2023/10/18 05:39:17;;;;;;;7.13;5.70;;;6.60;99.90;;;;;;5027843;28;20195;-85
2023/10/18 05:41:49;;;;;;;7.33;6.13;;;6.70;99.90;;;;;;5027323;28;20231;-86
2023/10/18 05:44:20;;;;;;;7.17;6.47;;;6.70;99.90;;;;;;5023595;28;20219;-85
2023/10/18 05:46:50;;;;;;;9.33;6.23;;;6.70;99.90;;;;;;5003004;28;20199;-86
2023/10/18 05:49:23;;;;;;;7.13;6.17;;;6.70;99.90;;;;;;5010086;28;20183;-86
2023/10/18 05:51:51;;;;;;;7.20;6.00;;;6.70;99.90;;;;;;5020966;28;20167;-86
2023/10/18 05:54:28;;;;;;;6.43;5.77;;;6.70;99.90;;;;;;5020733;28;20168;-84
2023/10/18 05:56:54;;;;;;;9.10;6.30;;;6.70;99.90;;;;;;5008886;28;20200;-84
2023/10/18 06:01:51;;;;;;;8.47;6.67;;;6.70;99.90;;;;;;5005719;28;20183;-85
2023/10/18 06:04:25;;;;;;;7.23;6.53;;;6.70;99.90;;;;;;5003680;28;20635;-84
2023/10/18 06:07:04;;;;;;;6.83;6.23;;;6.70;99.90;;;;;;4998948;28;20192;-84
2023/10/18 06:09:44;;;;;;;6.50;5.77;;;6.70;99.90;;;;;;5025081;28;20175;-84
2023/10/18 06:12:10;;;;;;;6.83;6.13;;;6.70;99.90;;;;;;5021546;28;20669;-85
2023/10/18 06:14:44;;;;;;;6.27;5.80;;;6.70;99.90;;;;;;5005820;28;20176;-85
2023/10/18 06:17:17;;;;;;;7.93;5.97;;;6.80;99.90;;;;;;5008130;28;20203;-85
2023/10/18 06:19:45;;;;;;;8.73;6.27;;;6.80;99.90;;;;;;5024226;28;20175;-87
2023/10/18 06:22:16;;;;;;;6.33;5.83;;;6.80;99.90;;;;;;5005896;28;20227;-85
2023/10/18 06:24:48;;;;;;;6.40;5.83;;;6.70;99.90;;;;;;5008556;28;20208;-85
2023/10/18 06:27:17;;;;;;;7.60;6.07;;;6.80;99.90;;;;;;5008353;28;20204;-85
2023/10/18 06:29:49;;;;;;;6.70;6.10;;;6.80;99.90;;;;;;5005822;28;20362;-85
2023/10/18 06:32:15;;;;;;;6.50;6.00;;;6.80;99.90;;;;;;5007177;28;20172;-85
2023/10/18 06:34:43;;;;;;;6.10;5.60;;;6.90;99.90;;;;;;5006841;28;20187;-85
2023/10/18 06:37:40;;;;;;;7.30;6.40;;;6.90;99.90;;;;;;5024282;28;20321;-85
2023/10/18 06:40:20;;;;;;;8.83;6.00;;;6.90;99.90;;;;;;5025343;28;20179;-85
2023/10/18 06:42:46;;;;;;;6.93;5.97;;;7.00;99.90;;;;;;5007339;28;20179;-85
2023/10/18 06:45:15;;;;;;;7.20;6.53;;;7.10;99.90;;;;;;5008876;28;20361;-85
2023/10/18 06:47:44;;;;;;;6.53;5.90;;;7.10;99.90;;;;;;5024872;28;20191;-85
2023/10/18 06:50:11;;;;;;;9.40;6.23;;;7.20;99.90;;;;;;5008570;28;20172;-85
2023/10/18 06:52:52;;;;;;;7.03;6.33;;;7.30;99.90;;;;;;5023670;28;20180;-85
2023/10/18 06:55:21;;;;;;;7.87;6.27;;;7.40;99.90;;;;;;5013075;28;20171;-84
2023/10/18 06:57:49;;;;;;;7.33;6.47;;;7.50;99.90;;;;;;5018444;28;20200;-85
2023/10/18 07:00:15;;;;;;;8.23;7.13;;;7.60;99.90;;;;;;5035048;28;20212;-85
2023/10/18 07:02:44;;;;;;;7.80;6.57;;;7.60;99.90;;;;;;5035655;28;20231;-84
2023/10/18 07:05:10;;;;;;;7.63;6.43;;;7.70;99.90;;;;;;5032834;28;20286;-84
2023/10/18 07:07:37;;;;;;;7.10;6.40;;;7.80;99.90;;;;;;5012247;28;20200;-85
2023/10/18 07:10:05;;;;;;;8.57;6.70;;;7.90;99.90;;;;;;5007646;28;20183;-85
2023/10/18 07:12:44;;;;;;;8.13;6.63;;;8.00;99.90;;;;;;5005134;28;20199;-85
2023/10/18 07:15:15;;;;;;;8.17;7.30;;;8.20;99.90;;;;;;5019717;28;20191;-86
2023/10/18 07:17:42;;;;;;;7.77;6.20;;;8.40;99.90;;;;;;5036978;23;20219;-72
2023/10/18 07:20:15;;;;;;;8.57;7.10;;;8.50;99.90;;;;;;5032541;28;20195;-73
2023/10/18 07:22:45;;;;;;;7.20;6.50;;;8.70;99.90;;;;;;5050350;28;20254;-73
2023/10/18 07:25:32;;;;;;;8.70;7.10;;;8.80;99.90;;;;;;5049638;28;20198;-73
2023/10/18 07:27:59;;;;;;;7.00;6.30;;;9.00;99.90;;;;;;5049947;28;20167;-74
2023/10/18 07:30:37;;;;;;;6.97;5.80;;;9.20;99.90;;;;;;5140583;22;20287;-86
2023/10/18 07:33:09;;;;;;;6.60;5.90;;;9.30;99.90;;;;;;5014614;28;20537;-86
2023/10/18 07:35:36;;;;;;;7.50;6.60;;;9.40;99.90;;;;;;5032886;28;20194;-85
2023/10/18 07:38:01;;;;;;;9.77;6.70;;;9.40;99.90;;;;;;4997935;28;20682;-85
2023/10/18 07:40:33;;;;;;;7.53;6.20;;;9.50;99.90;;;;;;5030996;28;20187;-86
2023/10/18 07:42:59;;;;;;;6.60;6.00;;;9.70;99.90;;;;;;4998171;28;20191;-86
2023/10/18 07:45:27;;;;;;;7.23;6.47;;;9.90;99.90;;;;;;5013759;28;20215;-85
2023/10/18 07:47:54;;;;;;;7.63;6.87;;;9.90;99.90;;;;;;5013694;28;20274;-85
2023/10/18 07:53:05;;;;;;;7.00;6.40;;;10.20;99.90;;;;;;5031440;28;20175;-85
2023/10/18 07:55:36;;;;;;;8.33;6.10;;;10.40;99.90;;;;;;5013249;28;20251;-85
2023/10/18 07:58:17;;;;;;;6.47;5.83;;;10.50;99.90;;;;;;5013270;28;20202;-85
2023/10/18 08:01:09;;;;;;;10.63;5.70;;;10.70;99.90;;;;;;5031454;28;20202;-85
2023/10/18 08:03:33;;;;;;;7.53;5.53;;;10.70;99.90;;;;;;5031793;28;20187;-85
2023/10/18 08:06:05;;;;;;;7.93;6.50;;;10.70;99.90;;;;;;5034451;28;20176;-85
2023/10/18 08:08:32;;;;;;;10.00;6.53;;;10.60;99.90;;;;;;5017403;28;20176;-86
2023/10/18 08:10:59;;;;;;;6.93;6.00;;;10.40;99.90;;;;;;5034617;28;20171;-85
2023/10/18 08:13:31;;;;;;;11.53;7.17;;;10.40;99.90;;;;;;5017079;28;20250;-86
2023/10/18 08:16:01;;;;;;;10.47;7.63;;;10.30;99.90;;;;;;5016796;28;20199;-85
2023/10/18 08:18:42;;;;;;;7.27;6.57;;;10.30;99.90;;;;;;5017158;28;20167;-86
2023/10/18 08:21:25;;;;;;;8.20;7.30;;;10.30;99.90;;;;;;5018340;28;20175;-86
2023/10/18 08:23:55;;;;;;;7.67;6.57;;;10.50;99.90;;;;;;5034046;28;20206;-85
2023/10/18 08:26:28;;;;;;;11.30;6.93;;;10.70;99.90;;;;;;5034482;28;20199;-85
2023/10/18 08:28:54;;;;;;;7.50;6.70;;;10.90;99.90;;;;;;5034201;28;20736;-86
2023/10/18 08:31:26;;;;;;;9.87;6.60;;;10.90;99.90;;;;;;5034412;28;20278;-85
2023/10/18 08:33:56;;;;;;;8.40;6.53;;;10.90;99.90;;;;;;5016970;28;20191;-86
2023/10/18 08:36:31;;;;;;;7.83;7.00;;;10.90;99.90;;;;;;5034143;28;20709;-86
2023/10/18 08:38:57;;;;;;;7.40;6.33;;;11.00;99.90;;;;;;5016798;28;20706;-85
2023/10/18 08:41:34;;;;;;;11.87;6.77;;;11.10;99.90;;;;;;5017257;28;20214;-85
2023/10/18 08:44:16;;;;;;;6.73;6.10;;;11.00;99.90;;;;;;5039058;28;20242;-85
2023/10/18 08:49:50;;;;;;;9.10;6.63;;;11.10;99.90;;;;;;5037708;28;20244;-86
2023/10/18 08:52:20;;;;;;;9.80;6.80;;;11.30;99.90;;;;;;5019103;28;20178;-86
2023/10/18 08:54:51;;;;;;;9.03;7.00;;;11.40;99.90;;;;;;5036488;28;20194;-86
2023/10/18 08:57:34;;;;;;;11.00;7.00;;;11.60;99.90;;;;;;5017335;28;20195;-86
2023/10/18 09:02:54;;;;;;;6.93;6.30;;;12.10;99.90;;;;;;4987239;28;20211;-86
2023/10/18 09:05:22;;;;;;;8.87;6.30;;;12.40;99.90;;;;;;4999591;28;20212;-86
2023/10/18 09:07:59;;;;;;;7.60;6.33;;;12.70;99.90;;;;;;5000372;28;20254;-86
2023/10/18 09:15:54;;;;;;;8.83;6.23;;;13.50;99.90;;;;;;5034153;28;20237;-86
2023/10/18 09:18:24;;;;;;;7.03;6.33;;;13.50;99.90;;;;;;5016549;28;20296;-87
2023/10/18 09:20:50;;;;;;;9.17;6.07;;;13.30;99.90;;;;;;5016224;28;20183;-86
2023/10/18 09:23:22;;;;;;;6.80;6.10;;;13.30;99.90;;;;;;5016138;28;20550;-88
2023/10/18 09:26:10;;;;;;;6.57;5.97;;;13.50;99.90;;;;;;5013832;28;20199;-86
2023/10/18 09:28:42;;;;;;;8.43;5.87;;;13.70;99.90;;;;;;5034329;28;20180;-89
2023/10/18 09:31:16;;;;;;;8.00;6.67;;;13.90;99.90;;;;;;5015542;28;20183;-86
2023/10/18 09:36:38;;;;;;;8.20;6.23;;;14.00;99.90;;;;;;5024704;28;20200;-86
2023/10/18 09:39:11;;;;;;;8.33;6.30;;;14.00;99.90;;;;;;5017514;28;20179;-86
2023/10/18 09:41:39;;;;;;;9.50;6.17;;;14.00;99.90;;;;;;5003325;28;20171;-86
2023/10/18 09:44:06;;;;;;;6.07;5.40;;;13.90;99.90;;;;;;5028239;28;20203;-86
2023/10/18 09:46:33;;;;;;;11.03;5.97;;;14.00;99.90;;;;;;5017138;28;20221;-86
2023/10/18 09:48:59;;;;;;;6.17;5.57;;;14.20;99.90;;;;;;5034834;28;20674;-86
2023/10/18 09:51:26;;;;;;;6.23;5.63;;;14.60;99.90;;;;;;5015890;28;20225;-86
2023/10/18 09:53:53;;;;;;;7.00;5.70;;;15.00;99.90;;;;;;4999421;28;20660;-86
2023/10/18 09:56:27;;;;;;;5.83;5.23;;;15.30;99.90;;;;;;5015387;28;20225;-86
2023/10/18 09:59:05;;;;;;;6.73;5.40;;;15.50;99.90;;;;;;5033624;28;20569;-87
2023/10/18 10:04:12;;;;;;;7.47;5.10;;;15.60;99.90;;;;;;5016784;28;20230;-87
2023/10/18 10:06:45;;;;;;;6.07;5.43;;;15.70;99.90;;;;;;5013575;28;20249;-86
2023/10/18 10:09:15;;;;;;;9.17;5.90;;;15.70;99.90;;;;;;5015775;28;20267;-86
2023/10/18 10:11:45;;;;;;;6.97;5.70;;;15.80;99.90;;;;;;5015429;28;20262;-86
2023/10/18 10:14:16;;;;;;;6.80;5.23;;;15.90;99.90;;;;;;5032905;28;20181;-86
2023/10/18 10:17:17;;;;;;;11.67;5.63;;;16.10;99.90;;;;;;5017027;28;20200;-86
2023/10/18 10:19:54;;;;;;;5.77;5.13;;;16.50;99.90;;;;;;5003272;28;20214;-85
2023/10/18 10:22:24;;;;;;;6.67;4.73;;;16.80;99.90;;;;;;4999259;28;20721;-86
2023/10/18 10:24:59;;;;;;;5.33;4.83;;;16.90;99.90;;;;;;5016412;28;20281;-86
2023/10/18 10:32:45;;;;;;;6.23;4.80;;;16.60;99.90;;;;;;5034745;28;20187;-86
2023/10/18 10:35:15;;;;;;;6.33;5.13;;;16.40;99.90;;;;;;5017368;28;20183;-86
2023/10/18 10:38:06;;;;;;;6.20;4.70;;;16.30;99.90;;;;;;5034677;28;20202;-86
2023/10/18 10:43:14;;;;;;;8.40;5.03;;;16.30;99.90;;;;;;5034903;28;20244;-86
2023/10/18 10:48:15;;;;;;;4.83;4.27;;;16.40;99.90;;;;;;5033396;28;20257;-86
2023/10/18 10:50:51;;;;;;;4.80;4.30;;;16.50;99.90;;;;;;5016096;28;20234;-86
2023/10/18 10:54:01;;;;;;;6.33;4.43;;;16.50;99.90;;;;;;5016920;28;20750;-86
2023/10/18 10:56:26;;;;;;;5.40;4.30;;;16.60;99.90;;;;;;5024826;28;20558;-85
2023/10/18 10:59:03;;;;;;;5.87;4.37;;;16.70;99.90;;;;;;5034089;28;20262;-87
2023/10/18 11:01:43;;;;;;;10.67;4.63;;;16.80;99.90;;;;;;5033680;28;20671;-86
2023/10/18 11:04:57;;;;;;;4.43;4.03;;;16.90;99.90;;;;;;5015455;28;20210;-85
2023/10/18 11:07:25;;;;;;;7.67;4.27;;;16.70;99.90;;;;;;5015568;28;20215;-86
2023/10/18 11:09:59;;;;;;;6.80;4.67;;;16.60;99.90;;;;;;5015947;28;20184;-86
2023/10/18 11:12:27;;;;;;;4.67;4.27;;;16.50;99.90;;;;;;5016039;28;20669;-86
2023/10/18 11:15:04;;;;;;;4.57;3.83;;;16.40;99.90;;;;;;5033816;28;20508;-86
2023/10/18 11:17:29;;;;;;;6.47;4.33;;;16.30;99.90;;;;;;5014811;28;20203;-86
2023/10/18 11:19:58;;;;;;;7.43;4.00;;;16.30;99.90;;;;;;5052707;28;20195;-86
2023/10/18 11:22:24;;;;;;;5.87;4.73;;;16.30;99.90;;;;;;5015833;28;20172;-86
2023/10/18 11:24:52;;;;;;;5.17;4.47;;;16.30;99.90;;;;;;5032787;28;20222;-85
2023/10/18 11:27:21;;;;;;;4.57;3.87;;;16.40;99.90;;;;;;5015071;28;20202;-86
2023/10/18 11:29:47;;;;;;;9.47;4.30;;;16.50;99.90;;;;;;5015979;28;20225;-86
2023/10/18 11:32:20;;;;;;;8.13;3.97;;;16.80;99.90;;;;;;5016003;28;20278;-86
2023/10/18 11:34:46;;;;;;;6.23;3.37;;;16.90;99.90;;;;;;5001055;28;20206;-86
2023/10/18 11:37:26;;;;;;;7.10;4.07;;;17.00;99.90;;;;;;5016771;28;20203;-85
2023/10/18 11:39:55;;;;;;;4.77;3.70;;;17.00;99.90;;;;;;5019640;28;20289;-86
2023/10/18 11:42:21;;;;;;;6.47;4.17;;;17.10;99.90;;;;;;5019884;28;20314;-86
2023/10/18 11:44:57;;;;;;;4.93;3.80;;;17.10;99.90;;;;;;5002051;28;20265;-86
2023/10/18 11:47:23;;;;;;;4.50;4.00;;;17.10;99.90;;;;;;5020132;28;20708;-85
2023/10/18 11:49:53;;;;;;;3.80;3.23;;;17.00;99.90;;;;;;5022253;28;20180;-89
2023/10/18 11:52:23;;;;;;;4.93;3.70;;;17.00;99.90;;;;;;5021690;28;20171;-86
2023/10/18 11:55:02;;;;;;;5.50;3.60;;;17.00;99.90;;;;;;5022664;28;20708;-86
2023/10/18 11:57:29;;;;;;;3.93;3.50;;;17.00;99.90;;;;;;5022168;28;20202;-86
2023/10/18 11:59:58;;;;;;;4.67;3.23;;;17.00;99.90;;;;;;5021171;28;20237;-86
2023/10/18 12:02:30;;;;;;;6.90;3.40;;;17.00;99.90;;;;;;5020629;28;20214;-86
2023/10/18 12:04:57;;;;;;;5.83;3.33;;;17.20;99.90;;;;;;5005257;28;20322;-85
2023/10/18 12:07:23;;;;;;;5.60;3.20;;;17.20;99.90;;;;;;5020614;28;20203;-89
2023/10/18 12:09:54;;;;;;;3.60;3.23;;;17.30;99.90;;;;;;5021830;28;20180;-89
2023/10/18 12:12:20;;;;;;;4.20;3.13;;;17.30;99.90;;;;;;5021373;28;20276;-85
2023/10/18 12:14:47;;;;;;;3.33;3.03;;;17.50;99.90;;;;;;5020332;28;20183;-85
2023/10/18 12:17:13;;;;;;;4.30;3.13;;;17.50;99.90;;;;;;5019532;28;20249;-85
2023/10/18 12:19:40;;;;;;;4.43;3.37;;;17.70;99.90;;;;;;5037737;28;20556;-84
2023/10/18 12:22:09;;;;;;;3.80;3.20;;;17.90;99.90;;;;;;5019501;28;20192;-84
2023/10/18 12:24:36;;;;;;;3.47;3.17;;;18.20;99.90;;;;;;5036486;28;20633;-86
2023/10/18 12:27:18;;;;;;;5.40;3.30;;;18.30;99.90;;;;;;5018590;28;20235;-86
2023/10/18 12:29:45;;;;;;;4.40;3.23;;;18.40;99.90;;;;;;5036858;28;20176;-86
2023/10/18 12:32:42;;;;;;;5.17;3.00;;;18.60;99.90;;;;;;5037013;28;20230;-85
2023/10/18 12:35:06;;;;;;;3.93;2.90;;;18.60;99.90;;;;;;5036304;28;20191;-85
2023/10/18 12:37:32;;;;;;;5.00;3.50;;;18.60;99.90;;;;;;5035693;28;20203;-85
2023/10/18 12:39:59;;;;;;;4.30;3.63;;;18.60;99.90;;;;;;5023932;28;20184;-85
2023/10/18 12:42:32;;;;;;;5.47;2.83;;;18.60;99.90;;;;;;5044393;28;20203;-85
2023/10/18 12:45:08;;;;;;;4.20;3.20;;;18.30;99.90;;;;;;5047825;28;20199;-86
2023/10/18 12:47:34;;;;;;;4.30;3.07;;;17.90;99.90;;;;;;5031546;28;20206;-85
2023/10/18 12:50:05;;;;;;;4.43;3.13;;;17.50;99.90;;;;;;5029061;28;20188;-85
2023/10/18 12:52:52;;;;;;;4.07;3.57;;;17.30;99.90;;;;;;5021037;28;20222;-85
2023/10/18 12:57:54;;;;;;;5.73;3.30;;;17.00;99.90;;;;;;5037539;28;20191;-85
2023/10/18 13:00:36;;;;;;;3.60;3.30;;;17.00;99.90;;;;;;5019479;28;20176;-86
2023/10/18 13:05:40;;;;;;;3.43;3.00;;;17.20;99.90;;;;;;5042851;28;20195;-85
2023/10/18 13:08:17;;;;;;;3.33;3.10;;;17.30;99.90;;;;;;5046350;28;20265;-85
2023/10/18 13:10:57;;;;;;;3.93;3.47;;;17.30;99.90;;;;;;5020674;28;20175;-85
2023/10/18 13:13:23;;;;;;;3.10;2.90;;;17.30;99.90;;;;;;5041236;28;20167;-85
2023/10/18 13:15:49;;;;;;;4.80;3.40;;;17.30;99.90;;;;;;5028712;28;20187;-85
2023/10/18 13:18:14;;;;;;;5.77;3.50;;;17.20;99.90;;;;;;5040175;28;20254;-85
2023/10/18 13:20:44;;;;;;;3.07;2.77;;;17.10;99.90;;;;;;5019633;28;20191;-84
2023/10/18 13:23:09;;;;;;;3.47;2.73;;;17.10;99.90;;;;;;5019267;28;20198;-85
2023/10/18 13:25:49;;;;;;;2.97;2.77;;;17.10;99.90;;;;;;5019057;28;20211;-85
2023/10/18 13:28:24;;;;;;;3.30;2.90;;;17.20;99.90;;;;;;5021045;28;20192;-84
2023/10/18 13:30:51;;;;;;;4.67;3.30;;;17.40;99.90;;;;;;5022634;28;20229;-85
2023/10/18 13:33:18;;;;;;;2.87;2.67;;;17.60;99.90;;;;;;5019614;28;20524;-84
2023/10/18 13:35:44;;;;;;;3.37;3.03;;;17.60;99.90;;;;;;5038375;28;20233;-85
2023/10/18 13:38:11;;;;;;;3.77;3.23;;;17.50;99.90;;;;;;5020134;28;20341;-85
2023/10/18 13:40:39;;;;;;;4.30;2.93;;;17.50;99.90;;;;;;5020550;28;20179;-85
2023/10/18 13:43:06;;;;;;;5.07;2.83;;;17.30;99.90;;;;;;5020702;28;20176;-85
2023/10/18 13:45:33;;;;;;;4.70;2.90;;;17.20;99.90;;;;;;5020169;28;20203;-85
2023/10/18 13:47:59;;;;;;;3.03;2.83;;;17.20;99.90;;;;;;5005459;28;20282;-85
2023/10/18 13:50:29;;;;;;;5.30;3.10;;;17.10;99.90;;;;;;5022010;28;20175;-84
2023/10/18 13:52:56;;;;;;;3.10;2.90;;;16.90;99.90;;;;;;5038814;28;20284;-85
2023/10/18 13:55:22;;;;;;;3.60;3.30;;;16.70;99.90;;;;;;5039843;28;20234;-84
2023/10/18 13:57:47;;;;;;;3.47;3.17;;;16.60;99.90;;;;;;5022348;28;20217;-84
2023/10/18 14:00:18;;;;;;;3.27;2.97;;;16.50;99.90;;;;;;5028718;28;20234;-84
2023/10/18 14:02:45;;;;;;;3.43;3.13;;;16.40;99.90;;;;;;5023194;28;20364;-84
2023/10/18 14:05:11;;;;;;;3.70;2.83;;;16.50;99.90;;;;;;5023756;28;20231;-84
2023/10/18 14:07:37;;;;;;;4.87;3.30;;;16.50;99.90;;;;;;5039712;28;20199;-84
2023/10/18 14:12:51;;;;;;;4.37;3.30;;;16.60;99.90;;;;;;5043056;28;20186;-83
2023/10/18 14:15:19;;;;;;;6.50;3.20;;;16.50;99.90;;;;;;5047691;28;20209;-84
2023/10/18 14:17:54;;;;;;;3.47;3.17;;;16.40;99.90;;;;;;5044562;28;20416;-84
2023/10/18 14:20:26;;;;;;;3.23;2.93;;;16.40;99.90;;;;;;5009727;28;20187;-83
2023/10/18 14:22:58;;;;;;;3.57;3.10;;;16.30;99.90;;;;;;5045168;28;20235;-84
2023/10/18 14:25:25;;;;;;;4.83;3.03;;;16.10;99.90;;;;;;5032702;28;20272;-84